Latest Coastal Weather Observations for Maroochydore

IDQ60701

Issued at 5:45 pm EST Friday 19 September 2014 (issued every 10 minutes, with the page automatically refreshed every 10 minutes)

About coastal observations | Map of coastal stations | Coastal observations for QLD | Marine services | Other Formats
Station Details ID: 040861 Name: SUNSHINE COAST AIRPORT Lat: -26.60 Lon: 153.09 Height: 3.3 m
Data from the previous 72 hours. | See also: Recent months at Maroochydore
Date/Time
EST
Temp

°C
Wind Pressure Rain
since 9am
mm
Weather Cloud Vis
km
Sea
Height
m
Swell
Dir
 
Speed
knots
Gust
knots
hPa Trend Height
m
Period
s
Dir
19/05:30pm 20.0 NNE 11 16 1017.5 - 0.0 - - 10 - - - -
19/05:00pm 20.9 NNE 13 16 1016.9 - 0.0 - - 10 - - - -
19/04:30pm 21.7 NNE 12 16 1016.6 - 0.0 - - 10 - - - -
19/04:00pm 22.2 NE 11 14 1016.7 - 0.0 - - 10 - - - -
19/03:30pm 23.2 NE 11 14 1016.7 - 0.0 - - 10 - - - -
19/03:00pm 23.5 NE 11 15 1016.7 - 0.0 - - 10 - - - -
19/02:30pm 23.6 NE 11 14 1016.8 - 0.0 - - 10 - - - -
19/02:00pm 23.9 NE 13 16 1017.0 - 0.0 - - 10 - - - -
19/01:30pm 23.8 NE 13 16 1017.4 - 0.0 - - 10 - - - -
19/01:00pm 23.9 NE 13 16 1017.9 - 0.0 - - 10 - - - -
19/12:30pm 23.6 ENE 12 15 1018.6 - 0.0 - - 10 - - - -
19/12:00pm 23.7 ENE 11 14 1019.1 - 0.0 - - 10 - - - -
19/11:30am 23.0 ENE 11 13 1019.7 - 0.0 - - 10 - - - -
19/11:00am 22.8 ENE 11 13 1020.2 - 0.0 - - 10 - - - -
19/10:30am 22.3 ENE 10 11 1020.5 - 0.0 - - 10 - - - -
19/10:00am 21.8 E 8 10 1020.9 - 0.0 - - 10 - - - -
19/09:30am 21.1 E 7 9 1021.2 - 0.0 - - 10 - - - -
19/09:00am 22.1 NW 5 8 1021.4 - 0.0 - - 10 - - - -
19/08:30am 20.0 W 3 5 1021.5 - 0.0 - - 10 - - - -
19/08:00am 17.4 WNW 3 5 1021.3 - 0.0 - - 10 - - - -
19/07:30am 14.5 W 3 4 1021.2 - 0.0 - - 10 - - - -
19/07:00am 12.3 CALM 0 0 1020.9 - 0.0 - - 10 - - - -
19/06:30am 10.2 SW 3 4 1020.6 - 0.0 - - 10 - - - -
19/06:00am 7.9 WSW 4 5 1020.3 - 0.0 - - 10 - - - -
19/05:30am 8.4 WSW 4 5 1020.0 - 0.0 - - 10 - - - -
19/05:00am 8.0 WNW 5 6 1019.6 - 0.0 - - 10 - - - -
19/04:30am 8.0 W 4 5 1019.5 - 0.0 - - 10 - - - -
19/04:00am 7.9 W 5 5 1019.5 - 0.0 - - 10 - - - -
19/03:30am 8.5 W 4 6 1019.3 - 0.0 - - 10 - - - -
19/03:00am 8.2 CALM 0 0 1019.1 - 0.0 - - 10 - - - -
19/02:30am 8.5 CALM 0 0 1019.0 - 0.0 - - 10 - - - -
19/02:00am 8.9 CALM 0 0 1019.2 - 0.0 - - 10 - - - -
19/01:30am 8.7 CALM 0 0 1019.4 - 0.0 - - 10 - - - -
19/01:00am 9.3 CALM 0 0 1019.4 - 0.0 - - 10 - - - -
19/12:30am 9.3 CALM 0 0 1019.5 - 0.0 - - 10 - - - -
19/12:00am 9.2 W 0 0 1019.8 - 0.0 - - 10 - - - -
 
Date/Time
EST
Temp

°C
Wind Pressure Rain
since 9am
mm
Weather Cloud Vis
km
Sea
Height
m
Swell
Dir
 
Speed
knots
Gust
knots
hPa Trend Height
m
Period
s
Dir
18/11:30pm 9.7 CALM 0 0 1019.9 - 0.0 - - 10 - - - -
18/11:00pm 10.3 CALM 0 0 1020.0 - 0.0 - - 10 - - - -
18/10:30pm 9.7 CALM 0 0 1020.1 - 0.0 - - 10 - - - -
18/10:00pm 10.7 CALM 0 0 1020.1 - 0.0 - - 10 - - - -
18/09:30pm 10.1 CALM 0 0 1019.9 - 0.0 - - 10 - - - -
18/09:00pm 11.0 CALM 0 0 1019.8 - 0.0 - - 10 - - - -
18/08:30pm 11.1 CALM 0 0 1019.6 - 0.0 - - 10 - - - -
18/08:00pm 12.7 WSW 3 3 1019.3 - 0.0 - - 10 - - - -
18/07:30pm 13.8 W 5 5 1018.9 - 0.0 - - 10 - - - -
18/07:00pm 16.0 NNE 5 8 1018.4 - 0.0 - - 10 - - - -
18/06:30pm 18.9 NNE 9 12 1018.0 - 0.0 - - 10 - - - -
18/06:00pm 18.8 NNE 9 11 1017.7 - 0.0 - - 10 - - - -
18/05:30pm 19.4 NNE 9 11 1017.3 - 0.0 - - 10 - - - -
18/05:00pm 20.6 NNE 8 10 1016.7 - 0.0 - - 10 - - - -
18/04:30pm 21.7 NE 8 11 1016.4 - 0.0 - - 10 - - - -
18/04:00pm 22.2 ENE 10 12 1016.0 - 0.0 - - 10 - - - -
18/03:30pm 22.7 ENE 10 12 1015.9 - 0.0 - - 10 - - - -
18/03:00pm 22.7 ENE 10 11 1015.9 - 0.0 - - 10 - - - -
18/02:30pm 23.0 E 10 12 1015.8 - 0.0 - - 10 - - - -
18/02:00pm 22.7 E 11 15 1016.1 - 0.0 - - 10 - - - -
18/01:30pm 23.0 E 11 14 1016.5 - 0.0 - - 10 - - - -
18/01:00pm 23.4 E 9 13 1017.0 - 0.0 - - 10 - - - -
18/12:30pm 22.8 E 11 13 1017.3 - 0.0 - - 10 - - - -
18/12:00pm 23.9 SSW 7 11 1017.8 - 0.0 - - 10 - - - -
18/11:30am 25.0 S 13 19 1018.1 - 0.0 - - 10 - - - -
18/11:00am 24.4 S 11 15 1018.6 - 0.0 - - 10 - - - -
18/10:30am 23.6 WSW 9 13 1019.0 - 0.0 - - 10 - - - -
18/10:00am 24.2 S 10 16 1019.3 - 0.0 - - 10 - - - -
18/09:30am 22.8 S 13 19 1019.6 - 0.0 - - 10 - - - -
18/09:00am 22.1 SSW 13 18 1019.7 - 0.0 - - 10 - - - -
18/08:30am 21.2 SSW 11 16 1019.4 - 0.0 - - 10 - - - -
18/08:00am 19.8 SW 8 11 1019.3 - 0.0 - - 10 - - - -
18/07:30am 17.3 WSW 5 7 1019.1 - 0.0 - - 10 - - - -
18/07:00am 14.4 SW 6 7 1018.7 - 0.0 - - 10 - - - -
18/06:30am 11.9 SW 6 7 1018.2 - 0.0 - - 10 - - - -
18/06:00am 9.5 WSW 6 7 1018.0 - 0.0 - - 10 - - - -
18/05:30am 9.6 W 4 5 1017.6 - 0.0 - - 10 - - - -
18/05:00am 10.3 WNW 5 6 1017.4 - 0.0 - - 10 - - - -
18/04:30am 10.9 W 4 5 1017.1 - 0.0 - - 10 - - - -
18/04:00am 10.8 W 5 6 1016.6 - 0.0 - - 10 - - - -
18/03:30am 10.7 WSW 4 6 1016.2 - 0.0 - - 10 - - - -
18/03:00am 11.1 W 6 6 1016.1 - 0.0 - - 10 - - - -
18/02:30am 12.6 SW 4 5 1015.8 - 0.0 - - 10 - - - -
18/02:00am 12.3 WNW 6 7 1015.7 - 0.0 - - 10 - - - -
18/01:30am 13.2 W 5 7 1015.5 - 0.0 - - 10 - - - -
18/01:00am 13.9 WNW 8 9 1015.4 - 0.0 - - 10 - - - -
18/12:30am 14.4 W 8 9 1015.2 - 0.0 - - 10 - - - -
18/12:00am 14.8 WNW 5 6 1015.1 - 0.0 - - 10 - - - -
 
Date/Time
EST
Temp

°C
Wind Pressure Rain
since 9am
mm
Weather Cloud Vis
km
Sea
Height
m
Swell
Dir
 
Speed
knots
Gust
knots
hPa Trend Height
m
Period
s
Dir
17/11:30pm 15.1 W 3 5 1014.9 - 0.0 - - 10 - - - -
17/11:00pm 15.5 WNW 4 5 1014.9 - 0.0 - - 10 - - - -
17/10:30pm 15.5 CALM 0 3 1014.9 - 0.0 - - 10 - - - -
17/10:00pm 15.2 W 4 6 1014.7 - 0.0 - - 10 - - - -
17/09:30pm 15.1 WNW 5 6 1014.6 - 0.0 - - 10 - - - -
17/09:28pm 14.9 WNW 5 6 1014.6 - 0.0 - - 10 - - - -
17/09:00pm 14.6 W 3 5 1014.2 - 0.0 - - 1 - - - -
17/08:41pm 15.0 NW 4 5 1014.2 - 0.0 - - 6 - - - -
17/08:30pm 15.1 SW 2 5 1014.0 - 0.0 - - 10 - - - -
17/08:25pm 16.0 SSW 3 5 1014.0 - 0.0 - - 10 - - - -
17/08:06pm 15.7 W 5 6 1013.9 - 0.0 - - 5 - - - -
17/08:00pm 16.3 NW 4 5 1013.8 - 0.0 - - 10 - - - -
17/07:30pm 16.7 W 3 5 1013.4 - 0.0 - - 10 - - - -
17/07:00pm 17.9 W 5 7 1013.0 - 0.0 - - 10 - - - -
17/06:30pm 18.8 CALM 0 0 1012.5 - 0.0 - - 10 - - - -
17/06:00pm 19.4 N 6 8 1012.0 - 0.0 - - 10 - - - -
17/05:30pm 21.1 NE 5 6 1011.7 - 0.0 - - 10 - - - -
17/05:00pm 22.2 NE 7 9 1011.6 - 0.0 - - 10 - - - -
17/04:30pm 23.2 NE 8 11 1011.6 - 0.0 - - 10 - - - -
17/04:00pm 23.6 NE 7 9 1011.5 - 0.0 - - 10 - - - -
17/03:30pm 24.2 NE 10 12 1011.2 - 0.0 - - 10 - - - -
17/03:00pm 24.2 NNE 12 15 1011.3 - 0.0 - - 10 - - - -
17/02:30pm 25.4 NE 11 15 1011.6 - 0.0 - - 10 - - - -
17/02:00pm 25.2 NE 10 13 1012.0 - 0.0 - Partly cloudy 10 - - - -
17/01:30pm 25.0 ENE 10 13 1012.3 - 0.0 - Partly cloudy 10 - - - -
17/01:00pm 25.9 NE 13 16 1012.7 - 0.0 - - 10 - - - -
17/12:30pm 26.5 NE 12 15 1013.1 - 0.0 - - 10 - - - -
17/12:00pm 25.9 NNE 13 15 1013.5 - 0.0 - - 10 - - - -
17/11:30am 25.5 NNE 12 15 1013.9 - 0.0 - - 10 - - - -
17/11:00am 26.2 NNE 10 13 1014.4 - 0.0 - - 10 - - - -
17/10:30am 26.1 NNE 10 14 1014.9 - 0.0 - - 10 - - - -
17/10:00am 25.7 W 4 10 1015.2 - 0.0 - - 10 - - - -
17/09:30am 24.4 NW 6 9 1015.6 - 0.0 - - 10 - - - -
17/09:00am 23.0 NW 10 14 1015.9 - 0.2 - - 10 - - - -
17/08:30am 22.3 NNW 8 11 1015.7 - 0.2 - - 10 - - - -
17/08:00am 20.6 NNW 6 8 1015.7 - 0.2 - - 10 - - - -
17/07:30am 19.6 WNW 5 8 1015.7 - 0.2 - - 10 - - - -
17/07:00am 17.8 WNW 7 11 1015.2 - 0.2 - - 10 - - - -
17/06:30am 16.7 NNW 8 11 1015.0 - 0.2 - - 10 - - - -
17/06:00am 15.8 NNW 4 5 1014.8 - 0.2 - - 10 - - - -
17/05:30am 16.0 NNW 6 7 1014.8 - 0.0 - - 10 - - - -
17/05:00am 16.1 NNW 5 6 1014.5 - 0.0 - - 10 - - - -
17/04:30am 16.1 NNW 5 7 1014.4 - 0.0 - - 10 - - - -
17/04:00am 16.6 NNW 7 9 1014.0 - 0.0 - - 10 - - - -
17/03:30am 16.7 NNW 7 10 1013.9 - 0.0 - - 10 - - - -
17/03:00am 16.5 NNW 7 9 1013.9 - 0.0 - - 10 - - - -
17/02:30am 16.2 NW 6 8 1013.8 - 0.0 - - 10 - - - -
17/02:00am 16.6 NW 6 8 1014.0 - 0.0 - - 10 - - - -
17/01:30am 17.1 NW 8 11 1014.2 - 0.0 - Partly cloudy 10 - - - -
17/01:00am 16.9 NW 7 9 1014.2 - 0.0 - Partly cloudy 10 - - - -
17/12:30am 16.8 NW 6 8 1014.5 - 0.0 - Partly cloudy 10 - - - -
17/12:00am 17.3 NW 6 9 1014.6 - 0.0 - Cloudy 10 - - - -
 
Date/Time
EST
Temp

°C
Wind Pressure Rain
since 9am
mm
Weather Cloud Vis
km
Sea
Height
m
Swell
Dir
 
Speed
knots
Gust
knots
hPa Trend Height
m
Period
s
Dir
16/11:30pm 17.5 NW 5 8 1014.8 - 0.0 - Partly cloudy 10 - - - -
16/11:00pm 17.7 NNW 7 10 1014.6 - 0.0 - Partly cloudy 10 - - - -
16/10:30pm 17.9 N 9 12 1014.6 - 0.0 - Partly cloudy 10 - - - -
16/10:00pm 17.0 N 7 8 1014.6 - 0.0 - - 10 - - - -
16/09:30pm 18.1 NNW 8 11 1014.7 - 0.0 - Partly cloudy 10 - - - -
16/09:00pm 19.5 N 12 17 1014.3 - 0.0 - - 10 - - - -
16/08:30pm 17.2 N 9 11 1014.3 - 0.0 - - 10 - - - -
16/08:00pm 18.5 W 5 6 1014.3 - 0.0 - Partly cloudy 10 - - - -
16/07:30pm 19.2 NNW 7 11 1013.9 - 0.0 - Partly cloudy 10 - - - -
16/07:00pm 20.8 WNW 7 11 1013.9 - 0.0 - Partly cloudy 10 - - - -
16/06:30pm 21.1 N 15 19 1012.6 - 0.0 - - 10 - - - -
16/06:00pm 20.9 N 13 17 1012.3 - 0.0 - - 10 - - - -

Other Formats:

Comma delimited format used in spreadsheet applications
http://www.bom.gov.au/fwo/IDQ60701/IDQ60701.94569.axf

JavaScript Object Notation format (JSON) in row-major order
http://www.bom.gov.au/fwo/IDQ60701/IDQ60701.94569.json